sensor_id;sensor_type;location;lat;lon;timestamp;pressure;altitude;pressure_sealevel;temperature;humidity
42847;BME280;28495;49.916;14.536;2022-11-20T00:02:24;96408.63;;;0.26;67.04
42847;BME280;28495;49.916;14.536;2022-11-20T00:07:44;96409.69;;;0.22;66.91
42847;BME280;28495;49.916;14.536;2022-11-20T00:13:05;96422.47;;;-0.09;67.01
42847;BME280;28495;49.916;14.536;2022-11-20T00:18:27;96412.69;;;0.14;67.78
42847;BME280;28495;49.916;14.536;2022-11-20T00:23:47;96413.09;;;0.22;67.44
42847;BME280;28495;49.916;14.536;2022-11-20T00:29:08;96405.63;;;0.18;67.60
42847;BME280;28495;49.916;14.536;2022-11-20T00:34:29;96414.66;;;0.25;67.50
42847;BME280;28495;49.916;14.536;2022-11-20T00:39:50;96409.69;;;0.38;67.46
42847;BME280;28495;49.916;14.536;2022-11-20T00:45:11;96415.41;;;0.11;67.29
42847;BME280;28495;49.916;14.536;2022-11-20T00:50:32;96413.09;;;0.22;67.61
42847;BME280;28495;49.916;14.536;2022-11-20T00:55:53;96407.84;;;0.40;67.70
42847;BME280;28495;49.916;14.536;2022-11-20T01:01:16;96409.41;;;0.42;67.02
42847;BME280;28495;49.916;14.536;2022-11-20T01:06:37;96406.22;;;0.53;67.63
42847;BME280;28495;49.916;14.536;2022-11-20T01:11:59;96403.19;;;0.77;67.64
42847;BME280;28495;49.916;14.536;2022-11-20T01:17:20;96409.38;;;0.58;67.42
42847;BME280;28495;49.916;14.536;2022-11-20T01:22:41;96411.88;;;0.44;67.39
42847;BME280;28495;49.916;14.536;2022-11-20T01:28:02;96404.84;;;0.48;67.66
42847;BME280;28495;49.916;14.536;2022-11-20T01:33:23;96407.41;;;0.48;67.45
42847;BME280;28495;49.916;14.536;2022-11-20T01:38:45;96409.31;;;0.44;67.55
42847;BME280;28495;49.916;14.536;2022-11-20T01:44:05;96400.56;;;0.32;67.58
42847;BME280;28495;49.916;14.536;2022-11-20T01:49:27;96401.13;;;0.37;67.67
42847;BME280;28495;49.916;14.536;2022-11-20T01:54:52;96398.75;;;0.34;67.36
42847;BME280;28495;49.916;14.536;2022-11-20T02:00:16;96402.00;;;0.22;67.65
42847;BME280;28495;49.916;14.536;2022-11-20T02:05:43;96402.00;;;0.22;68.06
42847;BME280;28495;49.916;14.536;2022-11-20T02:11:05;96392.66;;;0.21;67.83
42847;BME280;28495;49.916;14.536;2022-11-20T02:16:28;96387.25;;;0.25;67.66
42847;BME280;28495;49.916;14.536;2022-11-20T02:22:07;96384.53;;;0.28;67.58
42847;BME280;28495;49.916;14.536;2022-11-20T02:27:31;96379.06;;;0.35;67.70
42847;BME280;28495;49.916;14.536;2022-11-20T02:32:51;96371.00;;;0.41;67.89
42847;BME280;28495;49.916;14.536;2022-11-20T02:38:12;96374.41;;;0.41;67.88
42847;BME280;28495;49.916;14.536;2022-11-20T02:43:33;96365.88;;;0.41;67.62
42847;BME280;28495;49.916;14.536;2022-11-20T02:48:54;96381.09;;;0.44;67.73
42847;BME280;28495;49.916;14.536;2022-11-20T02:54:15;96372.94;;;0.82;68.58
42847;BME280;28495;49.916;14.536;2022-11-20T02:59:36;96368.47;;;1.00;68.32
42847;BME280;28495;49.916;14.536;2022-11-20T03:04:56;96364.34;;;0.98;68.09
42847;BME280;28495;49.916;14.536;2022-11-20T03:10:17;96365.59;;;0.76;67.67
42847;BME280;28495;49.916;14.536;2022-11-20T03:15:38;96363.34;;;0.55;67.69
42847;BME280;28495;49.916;14.536;2022-11-20T03:20:59;96354.28;;;0.64;67.90
42847;BME280;28495;49.916;14.536;2022-11-20T03:26:20;96348.78;;;0.56;67.98
42847;BME280;28495;49.916;14.536;2022-11-20T03:31:42;96336.78;;;0.71;67.80
42847;BME280;28495;49.916;14.536;2022-11-20T03:37:03;96354.56;;;0.59;67.70
42847;BME280;28495;49.916;14.536;2022-11-20T03:42:23;96358.63;;;0.33;67.25
42847;BME280;28495;49.916;14.536;2022-11-20T03:48:03;96366.56;;;0.28;67.79
42847;BME280;28495;49.916;14.536;2022-11-20T03:53:23;96369.31;;;0.25;67.72
42847;BME280;28495;49.916;14.536;2022-11-20T03:58:44;96377.69;;;0.29;68.17
42847;BME280;28495;49.916;14.536;2022-11-20T04:04:05;96377.84;;;0.26;67.97
42847;BME280;28495;49.916;14.536;2022-11-20T04:09:25;96384.22;;;0.19;68.05
42847;BME280;28495;49.916;14.536;2022-11-20T04:14:46;96380.41;;;0.26;67.93
42847;BME280;28495;49.916;14.536;2022-11-20T04:20:07;96381.53;;;0.36;68.10
42847;BME280;28495;49.916;14.536;2022-11-20T04:25:28;96382.44;;;0.35;68.10
42847;BME280;28495;49.916;14.536;2022-11-20T04:30:49;96377.78;;;0.42;68.07
42847;BME280;28495;49.916;14.536;2022-11-20T04:41:34;96366.59;;;0.59;68.10
42847;BME280;28495;49.916;14.536;2022-11-20T04:46:55;96361.66;;;0.70;68.29
42847;BME280;28495;49.916;14.536;2022-11-20T04:52:16;96352.63;;;0.63;68.33
42847;BME280;28495;49.916;14.536;2022-11-20T04:57:37;96346.31;;;0.69;68.08
42847;BME280;28495;49.916;14.536;2022-11-20T05:02:58;96341.41;;;0.95;69.10
42847;BME280;28495;49.916;14.536;2022-11-20T05:08:18;96339.47;;;0.98;68.09
42847;BME280;28495;49.916;14.536;2022-11-20T05:13:39;96328.41;;;0.98;68.33
42847;BME280;28495;49.916;14.536;2022-11-20T05:19:01;96330.31;;;0.94;68.05
42847;BME280;28495;49.916;14.536;2022-11-20T05:24:22;96342.84;;;0.70;67.87
42847;BME280;28495;49.916;14.536;2022-11-20T05:29:43;96334.13;;;0.58;67.85
42847;BME280;28495;49.916;14.536;2022-11-20T05:35:03;96328.25;;;0.56;68.27
42847;BME280;28495;49.916;14.536;2022-11-20T05:40:24;96325.53;;;0.28;68.41
42847;BME280;28495;49.916;14.536;2022-11-20T05:45:52;96324.91;;;0.25;68.38
42847;BME280;28495;49.916;14.536;2022-11-20T05:51:14;96332.84;;;0.20;68.16
42847;BME280;28495;49.916;14.536;2022-11-20T05:56:35;96336.88;;;0.24;68.27
42847;BME280;28495;49.916;14.536;2022-11-20T06:01:57;96350.59;;;0.23;68.12
42847;BME280;28495;49.916;14.536;2022-11-20T06:07:19;96349.38;;;0.00;68.06
42847;BME280;28495;49.916;14.536;2022-11-20T06:12:39;96352.63;;;0.02;67.96
42847;BME280;28495;49.916;14.536;2022-11-20T06:18:00;96347.28;;;-0.09;67.95
42847;BME280;28495;49.916;14.536;2022-11-20T06:23:21;96342.75;;;-0.04;68.14
42847;BME280;28495;49.916;14.536;2022-11-20T06:28:42;96342.59;;;-0.01;68.40
42847;BME280;28495;49.916;14.536;2022-11-20T06:34:03;96334.84;;;0.15;68.58
42847;BME280;28495;49.916;14.536;2022-11-20T06:39:24;96328.56;;;0.35;68.87
42847;BME280;28495;49.916;14.536;2022-11-20T06:44:45;96339.44;;;0.24;68.39
42847;BME280;28495;49.916;14.536;2022-11-20T06:50:06;96346.00;;;0.30;68.37
42847;BME280;28495;49.916;14.536;2022-11-20T06:55:26;96351.44;;;0.24;68.08
42847;BME280;28495;49.916;14.536;2022-11-20T07:00:47;96336.53;;;0.30;68.79
42847;BME280;28495;49.916;14.536;2022-11-20T07:06:08;96313.84;;;0.53;68.92
42847;BME280;28495;49.916;14.536;2022-11-20T07:11:29;96313.59;;;0.43;68.85
42847;BME280;28495;49.916;14.536;2022-11-20T07:16:50;96331.69;;;0.26;68.37
42847;BME280;28495;49.916;14.536;2022-11-20T07:22:11;96327.84;;;0.33;68.53
42847;BME280;28495;49.916;14.536;2022-11-20T07:27:32;96323.97;;;0.26;68.68
42847;BME280;28495;49.916;14.536;2022-11-20T07:32:53;96324.31;;;0.20;68.33
42847;BME280;28495;49.916;14.536;2022-11-20T07:38:14;96324.31;;;0.20;68.40
42847;BME280;28495;49.916;14.536;2022-11-20T07:43:35;96326.66;;;0.08;68.41
42847;BME280;28495;49.916;14.536;2022-11-20T07:49:00;96320.66;;;-0.07;68.36
42847;BME280;28495;49.916;14.536;2022-11-20T07:54:21;96326.53;;;-0.05;68.63
42847;BME280;28495;49.916;14.536;2022-11-20T07:59:42;96334.72;;;-0.14;68.66
42847;BME280;28495;49.916;14.536;2022-11-20T08:05:03;96331.59;;;-0.03;68.75
42847;BME280;28495;49.916;14.536;2022-11-20T08:10:24;96323.84;;;-0.18;68.96
42847;BME280;28495;49.916;14.536;2022-11-20T08:15:47;96329.19;;;-0.22;68.54
42847;BME280;28495;49.916;14.536;2022-11-20T08:21:09;96347.72;;;-0.01;69.18
42847;BME280;28495;49.916;14.536;2022-11-20T08:26:29;96333.31;;;-0.04;68.91
42847;BME280;28495;49.916;14.536;2022-11-20T08:31:50;96338.84;;;0.05;69.11
42847;BME280;28495;49.916;14.536;2022-11-20T08:37:13;96315.34;;;0.12;69.42
42847;BME280;28495;49.916;14.536;2022-11-20T08:42:33;96305.28;;;1.54;71.58
42847;BME280;28495;49.916;14.536;2022-11-20T08:47:59;96287.38;;;0.96;68.81
42847;BME280;28495;49.916;14.536;2022-11-20T08:53:20;96291.97;;;0.62;68.86
42847;BME280;28495;49.916;14.536;2022-11-20T08:58:40;96290.94;;;0.36;69.11
42847;BME280;28495;49.916;14.536;2022-11-20T09:04:21;96289.03;;;0.09;69.26
42847;BME280;28495;49.916;14.536;2022-11-20T09:09:42;96288.91;;;-0.04;69.38
42847;BME280;28495;49.916;14.536;2022-11-20T09:15:03;96282.13;;;-0.05;69.57
42847;BME280;28495;49.916;14.536;2022-11-20T09:20:24;96297.78;;;-0.10;69.69
42847;BME280;28495;49.916;14.536;2022-11-20T09:25:46;96305.91;;;-0.18;69.85
42847;BME280;28495;49.916;14.536;2022-11-20T09:31:07;96300.84;;;-0.19;70.43
42847;BME280;28495;49.916;14.536;2022-11-20T09:36:28;96293.16;;;-0.19;70.32
42847;BME280;28495;49.916;14.536;2022-11-20T09:48:10;96289.56;;;-0.31;70.79
42847;BME280;28495;49.916;14.536;2022-11-20T09:53:16;96283.34;;;-0.43;70.71
42847;BME280;28495;49.916;14.536;2022-11-20T09:58:42;96272.84;;;-0.38;70.76
42847;BME280;28495;49.916;14.536;2022-11-20T10:04:15;96266.97;;;-0.24;70.89
42847;BME280;28495;49.916;14.536;2022-11-20T10:09:39;96264.25;;;-0.07;71.45
42847;BME280;28495;49.916;14.536;2022-11-20T10:26:00;96248.19;;;0.06;71.04
42847;BME280;28495;49.916;14.536;2022-11-20T10:31:35;96263.50;;;0.22;71.40
42847;BME280;28495;49.916;14.536;2022-11-20T10:37:41;96255.03;;;0.50;71.35
42847;BME280;28495;49.916;14.536;2022-11-20T10:42:42;96252.38;;;0.52;71.27
42847;BME280;28495;49.916;14.536;2022-11-20T11:04:42;96238.06;;;0.76;71.22
42847;BME280;28495;49.916;14.536;2022-11-20T11:15:40;96232.84;;;0.78;71.49
42847;BME280;28495;49.916;14.536;2022-11-20T11:21:02;96222.50;;;0.80;71.00
42847;BME280;28495;49.916;14.536;2022-11-20T11:26:23;96218.72;;;0.71;71.15
42847;BME280;28495;49.916;14.536;2022-11-20T11:31:45;96212.34;;;0.64;71.55
42847;BME280;28495;49.916;14.536;2022-11-20T11:37:10;96196.50;;;0.57;71.26
42847;BME280;28495;49.916;14.536;2022-11-20T11:42:34;96202.53;;;0.70;71.72
42847;BME280;28495;49.916;14.536;2022-11-20T11:47:56;96198.41;;;0.68;71.46
42847;BME280;28495;49.916;14.536;2022-11-20T11:53:19;96202.50;;;0.85;71.90
42847;BME280;28495;49.916;14.536;2022-11-20T11:58:45;96206.44;;;0.90;71.63
42847;BME280;28495;49.916;14.536;2022-11-20T12:09:46;96183.47;;;1.02;71.85
42847;BME280;28495;49.916;14.536;2022-11-20T12:15:13;96176.22;;;1.09;72.21
42847;BME280;28495;49.916;14.536;2022-11-20T12:20:39;96159.41;;;1.17;71.92
42847;BME280;28495;49.916;14.536;2022-11-20T12:26:05;96141.84;;;1.24;72.60
42847;BME280;28495;49.916;14.536;2022-11-20T12:48:36;96161.94;;;1.72;72.09
42847;BME280;28495;49.916;14.536;2022-11-20T12:54:24;96155.44;;;1.79;72.09
42847;BME280;28495;49.916;14.536;2022-11-20T13:05:23;96145.59;;;1.86;72.00
42847;BME280;28495;49.916;14.536;2022-11-20T13:10:56;96137.97;;;1.85;71.78
42847;BME280;28495;49.916;14.536;2022-11-20T13:16:22;96135.81;;;1.65;71.74
42847;BME280;28495;49.916;14.536;2022-11-20T13:21:46;96131.47;;;1.66;71.97
42847;BME280;28495;49.916;14.536;2022-11-20T13:32:33;96125.16;;;1.44;72.24
42847;BME280;28495;49.916;14.536;2022-11-20T13:38:00;96116.34;;;1.48;71.95
42847;BME280;28495;49.916;14.536;2022-11-20T13:43:35;96103.25;;;1.39;72.37
42847;BME280;28495;49.916;14.536;2022-11-20T13:48:57;96095.38;;;1.55;72.46
42847;BME280;28495;49.916;14.536;2022-11-20T14:05:32;96106.59;;;1.54;72.67
42847;BME280;28495;49.916;14.536;2022-11-20T14:11:05;96111.72;;;1.66;72.64
42847;BME280;28495;49.916;14.536;2022-11-20T14:16:27;96110.72;;;1.69;72.68
42847;BME280;28495;49.916;14.536;2022-11-20T14:21:49;96102.47;;;1.64;72.73
42847;BME280;28495;49.916;14.536;2022-11-20T14:27:12;96100.50;;;1.67;72.53
42847;BME280;28495;49.916;14.536;2022-11-20T14:32:33;96097.25;;;1.78;72.99
42847;BME280;28495;49.916;14.536;2022-11-20T14:37:55;96096.00;;;1.97;73.41
42847;BME280;28495;49.916;14.536;2022-11-20T14:48:48;96083.44;;;2.31;73.49
42847;BME280;28495;49.916;14.536;2022-11-20T14:54:19;96088.31;;;2.47;72.94
42847;BME280;28495;49.916;14.536;2022-11-20T14:59:44;96091.72;;;2.48;72.61
42847;BME280;28495;49.916;14.536;2022-11-20T15:05:05;96094.06;;;2.51;72.82
42847;BME280;28495;49.916;14.536;2022-11-20T15:10:27;96092.31;;;2.64;72.74
42847;BME280;28495;49.916;14.536;2022-11-20T15:15:52;96097.28;;;2.54;72.43
42847;BME280;28495;49.916;14.536;2022-11-20T15:21:16;96104.59;;;2.48;72.75
42847;BME280;28495;49.916;14.536;2022-11-20T15:26:37;96090.69;;;2.50;72.33
42847;BME280;28495;49.916;14.536;2022-11-20T15:32:00;96096.56;;;2.52;72.44
42847;BME280;28495;49.916;14.536;2022-11-20T15:37:21;96102.44;;;2.41;72.03
42847;BME280;28495;49.916;14.536;2022-11-20T15:42:49;96112.94;;;2.38;72.40
42847;BME280;28495;49.916;14.536;2022-11-20T15:48:34;96114.38;;;3.04;78.75
42847;BME280;28495;49.916;14.536;2022-11-20T15:53:56;96085.03;;;4.46;74.88
42847;BME280;28495;49.916;14.536;2022-11-20T15:59:17;96094.97;;;3.83;72.69
42847;BME280;28495;49.916;14.536;2022-11-20T16:04:38;96092.28;;;3.37;72.11
42847;BME280;28495;49.916;14.536;2022-11-20T16:09:59;96090.00;;;3.21;72.55
42847;BME280;28495;49.916;14.536;2022-11-20T16:15:21;96104.41;;;3.24;72.47
42847;BME280;28495;49.916;14.536;2022-11-20T16:21:01;96096.97;;;3.08;72.25
42847;BME280;28495;49.916;14.536;2022-11-20T16:26:23;96097.03;;;2.95;71.90
42847;BME280;28495;49.916;14.536;2022-11-20T16:31:44;96088.00;;;2.89;72.96
42847;BME280;28495;49.916;14.536;2022-11-20T16:37:04;96098.28;;;2.89;72.78
42847;BME280;28495;49.916;14.536;2022-11-20T16:42:25;96111.25;;;2.87;72.30
42847;BME280;28495;49.916;14.536;2022-11-20T16:47:46;96112.38;;;2.96;74.90
42847;BME280;28495;49.916;14.536;2022-11-20T16:53:06;96106.50;;;3.18;72.91
42847;BME280;28495;49.916;14.536;2022-11-20T16:58:27;96110.88;;;3.05;72.66
42847;BME280;28495;49.916;14.536;2022-11-20T17:03:55;96114.84;;;2.98;72.65
42847;BME280;28495;49.916;14.536;2022-11-20T17:09:16;96113.78;;;2.76;72.72
42847;BME280;28495;49.916;14.536;2022-11-20T17:14:37;96119.97;;;2.73;73.01
42847;BME280;28495;49.916;14.536;2022-11-20T17:19:58;96111.31;;;2.74;72.96
42847;BME280;28495;49.916;14.536;2022-11-20T17:25:21;96108.56;;;2.65;72.74
42847;BME280;28495;49.916;14.536;2022-11-20T17:30:42;96114.00;;;2.97;74.11
42847;BME280;28495;49.916;14.536;2022-11-20T17:36:03;96107.28;;;2.83;73.24
42847;BME280;28495;49.916;14.536;2022-11-20T17:41:25;96111.94;;;3.02;76.52
42847;BME280;28495;49.916;14.536;2022-11-20T17:46:46;96103.56;;;5.07;78.09
42847;BME280;28495;49.916;14.536;2022-11-20T17:52:07;96104.72;;;4.70;73.09
42847;BME280;28495;49.916;14.536;2022-11-20T17:57:28;96099.22;;;4.18;71.91
42847;BME280;28495;49.916;14.536;2022-11-20T18:03:07;96101.91;;;3.93;74.12
42847;BME280;28495;49.916;14.536;2022-11-20T18:08:28;96099.94;;;4.31;72.80
42847;BME280;28495;49.916;14.536;2022-11-20T18:13:50;96098.84;;;3.88;72.17
42847;BME280;28495;49.916;14.536;2022-11-20T18:19:31;96090.56;;;3.49;71.41
42847;BME280;28495;49.916;14.536;2022-11-20T18:24:55;96082.06;;;3.24;71.85
42847;BME280;28495;49.916;14.536;2022-11-20T18:30:16;96081.06;;;3.14;72.61
42847;BME280;28495;49.916;14.536;2022-11-20T18:35:37;96076.69;;;3.03;72.35
42847;BME280;28495;49.916;14.536;2022-11-20T18:41:02;96077.72;;;3.00;72.77
42847;BME280;28495;49.916;14.536;2022-11-20T18:46:24;96073.63;;;2.98;72.12
42847;BME280;28495;49.916;14.536;2022-11-20T18:51:45;96077.72;;;3.00;72.47
42847;BME280;28495;49.916;14.536;2022-11-20T18:57:06;96081.78;;;2.92;72.09
42847;BME280;28495;49.916;14.536;2022-11-20T19:02:29;96073.88;;;2.82;71.84
42847;BME280;28495;49.916;14.536;2022-11-20T19:07:50;96080.09;;;2.79;71.77
42847;BME280;28495;49.916;14.536;2022-11-20T19:13:11;96076.00;;;2.77;72.12
42847;BME280;28495;49.916;14.536;2022-11-20T19:18:32;96071.94;;;2.85;72.30
42847;BME280;28495;49.916;14.536;2022-11-20T19:23:53;96075.06;;;2.78;72.23
42847;BME280;28495;49.916;14.536;2022-11-20T19:29:14;96082.44;;;2.82;71.79
42847;BME280;28495;49.916;14.536;2022-11-20T19:34:35;96078.63;;;2.88;71.89
42847;BME280;28495;49.916;14.536;2022-11-20T19:39:56;96080.13;;;2.90;72.26
42847;BME280;28495;49.916;14.536;2022-11-20T19:45:19;96084.72;;;2.74;71.66
42847;BME280;28495;49.916;14.536;2022-11-20T19:50:39;96073.78;;;2.59;71.74
42847;BME280;28495;49.916;14.536;2022-11-20T19:56:00;96078.53;;;2.52;71.94
42847;BME280;28495;49.916;14.536;2022-11-20T20:01:22;96069.88;;;2.53;71.82
42847;BME280;28495;49.916;14.536;2022-11-20T20:06:43;96066.09;;;2.46;71.97
42847;BME280;28495;49.916;14.536;2022-11-20T20:12:04;96068.50;;;2.61;72.06
42847;BME280;28495;49.916;14.536;2022-11-20T20:17:25;96053.44;;;2.67;71.90
42847;BME280;28495;49.916;14.536;2022-11-20T20:22:46;96062.34;;;2.63;72.23
42847;BME280;28495;49.916;14.536;2022-11-20T20:28:06;96052.34;;;2.58;71.86
42847;BME280;28495;49.916;14.536;2022-11-20T20:33:27;96055.56;;;2.62;71.81
42847;BME280;28495;49.916;14.536;2022-11-20T20:38:55;96057.34;;;2.49;71.30
42847;BME280;28495;49.916;14.536;2022-11-20T20:44:16;96044.97;;;2.54;72.10
42847;BME280;28495;49.916;14.536;2022-11-20T20:49:56;96045.22;;;2.38;71.52
42847;BME280;28495;49.916;14.536;2022-11-20T20:55:16;96042.69;;;2.62;72.80
42847;BME280;28495;49.916;14.536;2022-11-20T21:00:38;96035.97;;;2.59;71.79
42847;BME280;28495;49.916;14.536;2022-11-20T21:05:59;96035.19;;;2.46;71.67
42847;BME280;28495;49.916;14.536;2022-11-20T21:11:20;96035.38;;;2.56;72.12
42847;BME280;28495;49.916;14.536;2022-11-20T21:16:41;96015.16;;;2.63;71.68
42847;BME280;28495;49.916;14.536;2022-11-20T21:22:03;96013.47;;;2.99;76.55
42847;BME280;28495;49.916;14.536;2022-11-20T21:27:24;95998.81;;;3.69;73.75
42847;BME280;28495;49.916;14.536;2022-11-20T21:32:45;95983.94;;;3.50;72.31
42847;BME280;28495;49.916;14.536;2022-11-20T21:38:06;95970.56;;;3.33;71.89
42847;BME280;28495;49.916;14.536;2022-11-20T21:43:30;95957.31;;;3.27;72.08
42847;BME280;28495;49.916;14.536;2022-11-20T21:48:51;95956.81;;;2.63;71.60
42847;BME280;28495;49.916;14.536;2022-11-20T21:54:12;95948.59;;;2.34;71.99
42847;BME280;28495;49.916;14.536;2022-11-20T21:59:32;95947.78;;;2.33;72.11
42847;BME280;28495;49.916;14.536;2022-11-20T22:04:53;95947.47;;;2.25;72.11
42847;BME280;28495;49.916;14.536;2022-11-20T22:10:14;95936.78;;;2.31;72.86
42847;BME280;28495;49.916;14.536;2022-11-20T22:15:38;95940.66;;;2.37;72.82
42847;BME280;28495;49.916;14.536;2022-11-20T22:21:22;95935.94;;;2.31;72.13
42847;BME280;28495;49.916;14.536;2022-11-20T22:26:44;95932.03;;;2.25;72.21
42847;BME280;28495;49.916;14.536;2022-11-20T22:32:04;95942.09;;;2.41;72.56
42847;BME280;28495;49.916;14.536;2022-11-20T22:37:25;95935.75;;;2.21;72.70
42847;BME280;28495;49.916;14.536;2022-11-20T22:42:46;95925.81;;;2.16;72.66
42847;BME280;28495;49.916;14.536;2022-11-20T22:48:07;95915.81;;;2.24;73.04
42847;BME280;28495;49.916;14.536;2022-11-20T22:53:27;95910.81;;;2.34;73.69
42847;BME280;28495;49.916;14.536;2022-11-20T22:58:49;95895.13;;;2.37;73.43
42847;BME280;28495;49.916;14.536;2022-11-20T23:04:10;95905.44;;;2.37;73.03
42847;BME280;28495;49.916;14.536;2022-11-20T23:09:31;95911.50;;;2.36;73.32
42847;BME280;28495;49.916;14.536;2022-11-20T23:14:52;95896.94;;;2.48;73.24
42847;BME280;28495;49.916;14.536;2022-11-20T23:20:13;95900.81;;;2.54;72.82
42847;BME280;28495;49.916;14.536;2022-11-20T23:25:34;95896.13;;;2.48;73.18
42847;BME280;28495;49.916;14.536;2022-11-20T23:30:55;95902.03;;;2.61;72.68
42847;BME280;28495;49.916;14.536;2022-11-20T23:36:15;95894.13;;;2.40;72.91
42847;BME280;28495;49.916;14.536;2022-11-20T23:41:37;95884.47;;;2.31;73.02
42847;BME280;28495;49.916;14.536;2022-11-20T23:46:57;95886.75;;;2.11;72.55
42847;BME280;28495;49.916;14.536;2022-11-20T23:52:18;95871.94;;;2.02;72.55
42847;BME280;28495;49.916;14.536;2022-11-20T23:57:39;95872.03;;;1.89;72.82
